Ponchatoula, LA (70454)

05:08 AM CDT die 21o August, anno 2014 (GMT -0500)
Bayou Canada South | Change Station
CLOSE
Current Station
Personal Weather Stations
Location: Ponchatoula, LA
Elevation: 35 ft
Nearby Weather Stations

Elev 35 ft 30.45 °N, 90.36 °W | Updated 58 minutes ago

Clear
Serena
72.4 °F
Feels Like 72.4 °F
N
0.0
Ventus Variabilis Ventus from Magis Zephyrus quam Aquilo
Gusts 0.0 mph

Hodie
High -- | Low -- °F
--% Chance of Precip.
Yesterday
High -- | Low -- °F
Precip. -- in
6:31 AM 7:36 PM
Waning Crescent, 15% visible
Pressio 30.11 in
Visibilitas 10.0 milia passuum
Clouds Serena
Frigus in quo Ros apparet 72 °F
Umor 99%
Rainfall 0.00 in
Snow Depth Not available.
UV 1.3 out of 12
Pollen 6.80 out of 12
Air Quality Not available.
Flu Activity Not available.
METAR KHDC 210935Z AUTO 00000KT 10SM CLR 23/21 A3011 RMK AO2

More Conditions Fewer Conditions

Pressio 30.11 in
Visibilitas 10.0 milia passuum
Clouds Serena
Frigus in quo Ros apparet 72 °F
Umor 99%
Rainfall 0.00 in
Snow Depth Not available.
UV 1.3 out of 12
Pollen 6.80 out of 12
Air Quality Not available.
Flu Activity Not available.
METAR KHDC 210935Z AUTO 00000KT 10SM CLR 23/21 A3011 RMK AO2

More Conditions Fewer Conditions

10-Day Weather Forecast

Almanac

Astronomy

Aug. 21, 2014 Rise Set
Actual Time 6:31 AM CDT 7:36 PM CDT
Civil Twilight 6:06 AM CDT 8:01 PM CDT
Nautical Twilight 5:37 AM CDT 8:31 PM CDT
Astronomical Twilight 5:06 AM CDT 9:01 PM CDT
Moon 3:09 AM CDT 5:00 PM CDT
Length Of Visible Light 13h 54m
Length of Day
13h 05m
Tomorrow will be 1m 41s shorter.
Waning Crescent, 15% of the Moon is Illuminated
Hodie
Waning Crescent
Aug 25
New
Sep 2
First Quarter
Sep 8
Full
Sep 15
Last Quarter

Today's Extremes

State Highs State Lows

Community

WunderPhotos

Upload Photos

1,745,871 photos uploaded!

Nearby

Snow Depth

Station Depth Elevation
No new snow has been reported.

Earthquake Activity

City Distance Mag. Time & Date
No recent earthquake activity has been reported nearby.
Minimum magnitude displayed is 2.5.

Coastal Water Temperatures

Locus Calor
New Canal, LA 82.9 °F
Shell Beach, LA 82.0 °F
Bayou Gauche, LA 86.0 °F

Nearby Weather Stations